Roosevelt, Utah
Current Conditions -  °F | °C
As of 1:53 AM on Saturday 25 Oct 2014 (Local Time) from KVEL Reporting Station
Clear Clear  
Wind Chill: 41°   Ceiling: Unl
Heat Index: 44°   Visibility: 10mi
Dew Point: 33°   Wind: 6mph
Humidity: 65%   Direction: 280°W
Pressure: 30.25"   Gusts: NA
Location:  40.3°N, 109.99°W
Report Text: KVEL 250753Z AUTO 28005KT 10SM CLR 07/01 A3025 RMK AO2 SLP211 T00670006
Loading
Personal Weather Stations






























Interactive Weather Map
Tropical Storm Tracking
New forecast layout! Learn more

10-Day Weather Forecast

Advertisements
Track Severe Weather on mobile